createdAt,value
2023-05-11T00:02:03.317Z,100.00
2023-05-11T00:04:31.167Z,100.00
2023-05-11T00:06:58.909Z,100.00
2023-05-11T00:09:27.944Z,100.00
2023-05-11T00:11:55.635Z,100.00
2023-05-11T00:14:23.341Z,100.00
2023-05-11T00:16:51.169Z,100.00
2023-05-11T00:19:18.910Z,100.00
2023-05-11T00:21:46.660Z,100.00
2023-05-11T00:24:14.328Z,100.00
2023-05-11T00:26:43.469Z,100.00
2023-05-11T00:29:11.169Z,100.00
2023-05-11T00:31:39.052Z,100.00
2023-05-11T00:34:06.979Z,100.00
2023-05-11T00:36:34.852Z,100.00
2023-05-11T00:39:02.657Z,100.00
2023-05-11T00:41:30.455Z,100.00
2023-05-11T00:43:59.569Z,100.00
2023-05-11T00:46:28.615Z,100.00
2023-05-11T00:48:56.730Z,100.00
2023-05-11T00:51:24.484Z,100.00
2023-05-11T00:53:52.212Z,100.00
2023-05-11T00:56:20.221Z,100.00
2023-05-11T00:58:47.966Z,100.00
2023-05-11T01:01:18.673Z,100.00
2023-05-11T01:03:47.248Z,100.00
2023-05-11T01:06:20.815Z,100.00
2023-05-11T01:08:55.120Z,100.00
2023-05-11T01:11:31.635Z,100.00
2023-05-11T01:14:05.054Z,100.00
2023-05-11T01:16:36.359Z,100.00
2023-05-11T01:19:12.269Z,100.00
2023-05-11T01:21:41.885Z,100.00
2023-05-11T01:24:27.964Z,100.00
2023-05-11T01:27:29.080Z,100.00
2023-05-11T01:33:04.117Z,100.00
2023-05-11T01:35:36.457Z,100.00
2023-05-11T01:38:07.489Z,100.00
2023-05-11T01:40:37.206Z,100.00
2023-05-11T01:43:09.070Z,100.00
2023-05-11T01:45:40.213Z,100.00
2023-05-11T01:48:15.460Z,100.00
2023-05-11T01:50:43.922Z,100.00
2023-05-11T01:53:13.302Z,100.00
2023-05-11T01:55:42.936Z,100.00
2023-05-11T01:58:15.002Z,100.00
2023-05-11T02:00:44.269Z,100.00
2023-05-11T02:03:15.159Z,100.00
2023-05-11T02:05:44.909Z,100.00
2023-05-11T02:08:13.610Z,100.00
2023-05-11T02:10:42.800Z,100.00
2023-05-11T02:13:11.535Z,100.00
2023-05-11T02:15:42.213Z,100.00
2023-05-11T02:18:15.592Z,100.00
2023-05-11T02:20:44.335Z,100.00
2023-05-11T02:23:12.483Z,100.00
2023-05-11T02:25:41.833Z,100.00
2023-05-11T02:28:09.653Z,100.00
2023-05-11T02:30:45.720Z,100.00
2023-05-11T02:33:22.238Z,100.00
2023-05-11T02:35:52.400Z,100.00
2023-05-11T02:38:21.076Z,100.00
2023-05-11T02:40:54.316Z,100.00
2023-05-11T02:43:25.697Z,100.00
2023-05-11T02:46:00.165Z,100.00
2023-05-11T02:48:31.574Z,100.00
2023-05-11T02:51:02.116Z,100.00
2023-05-11T02:53:32.743Z,100.00
2023-05-11T02:56:02.138Z,100.00
2023-05-11T02:58:30.202Z,100.00
2023-05-11T03:00:58.691Z,100.00
2023-05-11T03:03:27.489Z,100.00
2023-05-11T03:05:56.671Z,100.00
2023-05-11T03:08:24.363Z,100.00
2023-05-11T03:10:54.315Z,100.00
2023-05-11T03:13:23.607Z,100.00
2023-05-11T03:15:53.461Z,100.00
2023-05-11T03:18:23.315Z,100.00
2023-05-11T03:20:51.910Z,100.00
2023-05-11T03:23:21.853Z,100.00
2023-05-11T03:25:50.297Z,100.00
2023-05-11T03:28:21.004Z,100.00
2023-05-11T03:30:50.930Z,100.00
2023-05-11T03:33:19.874Z,100.00
2023-05-11T03:35:50.909Z,100.00
2023-05-11T03:38:20.659Z,100.00
2023-05-11T03:40:51.180Z,100.00
2023-05-11T03:43:21.874Z,100.00
2023-05-11T03:45:52.547Z,100.00
2023-05-11T03:48:21.193Z,100.00
2023-05-11T03:50:50.108Z,100.00
2023-05-11T03:53:17.854Z,100.00
2023-05-11T03:55:45.624Z,100.00
2023-05-11T03:58:15.011Z,100.00
2023-05-11T04:00:44.025Z,100.00
2023-05-11T04:03:12.556Z,100.00
2023-05-11T04:05:40.509Z,100.00
2023-05-11T04:08:08.528Z,100.00
2023-05-11T04:10:36.296Z,100.00
2023-05-11T04:13:04.059Z,100.00
2023-05-11T04:15:33.308Z,100.00
2023-05-11T04:18:01.008Z,100.00
2023-05-11T04:20:28.705Z,100.00
2023-05-11T04:22:56.467Z,100.00
2023-05-11T04:25:24.141Z,100.00
2023-05-11T04:27:51.859Z,100.00
2023-05-11T04:30:20.697Z,100.00
2023-05-11T04:32:50.105Z,100.00
2023-05-11T04:35:18.339Z,100.00
2023-05-11T04:37:46.055Z,100.00
2023-05-11T04:40:14.296Z,100.00
2023-05-11T04:42:41.993Z,100.00
2023-05-11T04:45:10.574Z,100.00
2023-05-11T04:47:38.660Z,100.00
2023-05-11T04:50:08.651Z,100.00
2023-05-11T04:52:36.460Z,100.00
2023-05-11T04:55:04.449Z,100.00
2023-05-11T04:57:32.143Z,100.00
2023-05-11T04:59:59.898Z,100.00
2023-05-11T05:02:27.683Z,100.00
2023-05-11T05:04:55.464Z,100.00
2023-05-11T05:07:24.684Z,100.00
2023-05-11T05:09:52.412Z,100.00
2023-05-11T05:12:20.194Z,100.00
2023-05-11T05:14:47.913Z,100.00
2023-05-11T05:17:15.642Z,100.00
2023-05-11T05:19:43.379Z,100.00
2023-05-11T05:22:11.177Z,100.00
2023-05-11T05:24:40.371Z,100.00
2023-05-11T05:27:08.032Z,100.00
2023-05-11T05:29:35.692Z,100.00
2023-05-11T05:32:03.452Z,100.00
2023-05-11T05:34:31.133Z,100.00
2023-05-11T05:36:58.875Z,100.00
2023-05-11T05:39:26.595Z,100.00
2023-05-11T05:41:55.670Z,100.00
2023-05-11T05:44:23.445Z,100.00
2023-05-11T05:46:51.204Z,100.00
2023-05-11T05:49:18.901Z,100.00
2023-05-11T05:51:46.592Z,100.00
2023-05-11T05:54:14.316Z,100.00
2023-05-11T05:56:42.282Z,100.00
2023-05-11T05:59:13.131Z,100.00
2023-05-11T06:01:45.552Z,100.00
2023-05-11T06:04:13.562Z,100.00
2023-05-11T06:06:41.425Z,100.00
2023-05-11T06:09:09.355Z,100.00
2023-05-11T06:11:37.091Z,100.00
2023-05-11T06:14:04.927Z,100.00
2023-05-11T06:16:34.127Z,100.00
2023-05-11T06:19:01.986Z,100.00
2023-05-11T06:21:29.836Z,100.00
2023-05-11T06:23:57.526Z,100.00
2023-05-11T06:26:25.659Z,100.00
2023-05-11T06:28:53.384Z,100.00
2023-05-11T06:31:23.152Z,100.00
2023-05-11T06:33:52.288Z,100.00
2023-05-11T06:36:20.058Z,100.00
2023-05-11T06:38:47.751Z,100.00
2023-05-11T06:41:15.500Z,100.00
2023-05-11T06:43:43.265Z,100.00
2023-05-11T06:46:16.224Z,100.00
2023-05-11T06:48:44.070Z,100.00
2023-05-11T06:51:13.710Z,100.00
2023-05-11T06:53:41.465Z,100.00
2023-05-11T06:56:09.292Z,100.00
2023-05-11T06:58:36.967Z,100.00
2023-05-11T07:01:07.693Z,100.00
2023-05-11T07:03:35.817Z,100.00
2023-05-11T07:06:03.705Z,100.00
2023-05-11T07:08:33.781Z,100.00
2023-05-11T07:11:01.527Z,100.00
2023-05-11T07:13:29.329Z,100.00
2023-05-11T07:15:57.785Z,100.00
2023-05-11T07:18:25.917Z,100.00
2023-05-11T07:20:53.663Z,100.00
2023-05-11T07:23:21.557Z,100.00
2023-05-11T07:25:51.012Z,100.00
2023-05-11T07:28:18.730Z,100.00
2023-05-11T07:30:46.658Z,100.00
2023-05-11T07:33:14.391Z,100.00
2023-05-11T07:35:42.105Z,100.00
2023-05-11T07:38:11.824Z,100.00
2023-05-11T07:40:39.708Z,100.00
2023-05-11T07:43:08.793Z,100.00
2023-05-11T07:45:37.133Z,100.00
2023-05-11T07:48:05.062Z,100.00
2023-05-11T07:50:33.068Z,100.00
2023-05-11T07:53:00.743Z,100.00
2023-05-11T07:55:30.566Z,100.00
2023-05-11T07:57:58.610Z,100.00
2023-05-11T08:00:28.089Z,100.00
2023-05-11T08:02:56.680Z,100.00
2023-05-11T08:05:24.717Z,100.00
2023-05-11T08:07:52.461Z,100.00
2023-05-11T08:10:20.303Z,99.57
2023-05-11T08:12:48.076Z,99.70
2023-05-11T08:15:15.951Z,99.30
2023-05-11T08:17:46.152Z,95.52
2023-05-11T08:20:14.486Z,87.33
2023-05-11T08:22:42.323Z,86.18
2023-05-11T08:25:10.614Z,86.73
2023-05-11T08:27:38.347Z,88.95
2023-05-11T08:30:08.940Z,84.46
2023-05-11T08:32:54.551Z,85.65
2023-05-11T08:35:27.537Z,82.66
2023-05-11T08:37:55.258Z,80.04
2023-05-11T08:40:24.966Z,78.14
2023-05-11T08:42:56.727Z,78.42
2023-05-11T08:45:24.894Z,78.91
2023-05-11T08:47:53.215Z,79.98
2023-05-11T08:50:21.606Z,80.65
2023-05-11T08:52:50.788Z,76.84
2023-05-11T08:55:18.775Z,76.49
2023-05-11T08:57:47.917Z,73.39
2023-05-11T09:00:17.483Z,79.62
2023-05-11T09:02:45.541Z,73.35
2023-05-11T09:05:14.889Z,74.51
2023-05-11T09:07:45.213Z,79.22
2023-05-11T09:10:14.659Z,82.95
2023-05-11T09:12:42.350Z,82.62
2023-05-11T09:15:11.087Z,78.00
2023-05-11T09:17:38.951Z,79.12
2023-05-11T09:20:09.376Z,80.24
2023-05-11T09:22:44.957Z,74.91
2023-05-11T09:25:16.993Z,77.70
2023-05-11T09:27:46.324Z,73.46
2023-05-11T09:30:22.132Z,76.52
2023-05-11T09:32:51.946Z,78.67
2023-05-11T09:35:21.321Z,71.29
2023-05-11T09:38:02.373Z,69.49
2023-05-11T09:40:34.122Z,69.29
2023-05-11T09:43:03.355Z,71.95
2023-05-11T09:45:39.199Z,70.60
2023-05-11T09:48:08.881Z,64.97
2023-05-11T09:50:37.389Z,65.59
2023-05-11T09:53:05.197Z,67.96
2023-05-11T09:55:34.399Z,66.41
2023-05-11T09:58:02.623Z,66.66
2023-05-11T10:00:30.663Z,67.06
2023-05-11T10:03:03.174Z,65.01
2023-05-11T10:05:32.783Z,65.44
2023-05-11T10:08:01.592Z,65.88
2023-05-11T10:10:30.509Z,65.24
2023-05-11T10:13:01.625Z,65.56
2023-05-11T10:15:31.928Z,60.44
2023-05-11T10:18:01.400Z,62.83
2023-05-11T10:20:29.340Z,71.87
2023-05-11T10:22:57.094Z,69.23
2023-05-11T10:25:26.517Z,67.56
2023-05-11T10:27:55.698Z,66.53
2023-05-11T10:30:25.304Z,63.10
2023-05-11T10:32:54.769Z,62.12
2023-05-11T10:35:24.032Z,65.45
2023-05-11T10:37:51.812Z,66.04
2023-05-11T10:40:19.828Z,63.51
2023-05-11T10:43:18.271Z,65.45
2023-05-11T10:45:53.672Z,63.75
2023-05-11T10:49:04.187Z,63.46
2023-05-11T10:52:13.654Z,67.78
2023-05-11T10:54:50.081Z,67.12
2023-05-11T10:57:37.327Z,68.16
2023-05-11T11:00:31.159Z,67.53
2023-05-11T11:03:10.734Z,65.67
2023-05-11T11:05:39.131Z,67.03
2023-05-11T11:08:09.232Z,66.13
2023-05-11T11:10:39.667Z,68.67
2023-05-11T11:13:09.949Z,73.51
2023-05-11T11:16:16.573Z,75.09
2023-05-11T11:18:45.950Z,75.65
2023-05-11T11:21:15.854Z,80.36
2023-05-11T11:23:51.183Z,80.28
2023-05-11T11:26:47.322Z,81.28
2023-05-11T11:29:15.376Z,84.71
2023-05-11T11:31:43.595Z,87.56
2023-05-11T11:34:36.511Z,89.92
2023-05-11T11:37:06.266Z,90.24
2023-05-11T11:40:13.999Z,88.59
2023-05-11T11:42:44.304Z,89.30
2023-05-11T11:45:32.239Z,84.74
2023-05-11T11:48:14.232Z,81.96
2023-05-11T11:50:45.623Z,83.16
2023-05-11T11:53:34.795Z,77.56
2023-05-11T11:56:02.535Z,77.75
2023-05-11T11:58:59.208Z,77.00
2023-05-11T12:01:29.624Z,79.71
2023-05-11T12:04:22.093Z,75.94
2023-05-11T12:06:58.361Z,79.20
2023-05-11T12:09:27.174Z,75.44
2023-05-11T12:11:55.088Z,72.35
2023-05-11T12:14:23.239Z,66.81
2023-05-11T12:17:15.990Z,73.39
2023-05-11T12:19:46.836Z,72.48
2023-05-11T12:22:16.437Z,74.49
2023-05-11T12:24:44.253Z,76.21
2023-05-11T12:27:12.043Z,74.59
2023-05-11T12:29:41.388Z,75.78
2023-05-11T12:32:14.027Z,68.17
2023-05-11T12:34:41.884Z,72.13
2023-05-11T12:37:09.637Z,69.87
2023-05-11T12:39:39.592Z,72.79
2023-05-11T12:42:07.696Z,69.25
2023-05-11T12:44:35.483Z,65.41
2023-05-11T12:47:03.395Z,63.57
2023-05-11T12:49:31.167Z,60.66
2023-05-11T12:52:07.723Z,57.63
2023-05-11T12:54:39.060Z,60.35
2023-05-11T12:57:08.662Z,67.33
2023-05-11T12:59:38.436Z,68.00
2023-05-11T13:02:14.808Z,67.48
2023-05-11T13:04:44.045Z,63.61
2023-05-11T13:07:13.165Z,64.89
2023-05-11T13:09:42.712Z,65.57
2023-05-11T13:12:12.255Z,61.14
2023-05-11T13:14:40.152Z,64.56
2023-05-11T13:17:08.519Z,65.83
2023-05-11T13:19:37.572Z,60.37
2023-05-11T13:22:05.777Z,59.48
2023-05-11T13:24:34.544Z,60.38
2023-05-11T13:27:04.007Z,60.48
2023-05-11T13:29:31.767Z,57.71
2023-05-11T13:31:59.498Z,62.06
2023-05-11T13:34:27.279Z,59.41
2023-05-11T13:36:55.069Z,56.60
2023-05-11T13:39:22.791Z,57.78
2023-05-11T13:41:50.511Z,62.92
2023-05-11T13:44:19.598Z,69.92
2023-05-11T13:46:47.513Z,70.45
2023-05-11T13:49:15.459Z,74.77
2023-05-11T13:51:43.176Z,82.35
2023-05-11T13:54:10.941Z,75.89
2023-05-11T13:56:38.688Z,78.46
2023-05-11T13:59:07.163Z,78.55
2023-05-11T14:01:36.529Z,73.29
2023-05-11T14:04:04.309Z,73.79
2023-05-11T14:06:35.315Z,73.92
2023-05-11T14:09:03.015Z,77.37
2023-05-11T14:11:30.887Z,79.80
2023-05-11T14:13:58.545Z,79.68
2023-05-11T14:16:26.324Z,81.25
2023-05-11T14:18:55.488Z,80.81
2023-05-11T14:21:23.380Z,79.54
2023-05-11T14:24:09.800Z,79.63
2023-05-11T14:26:38.576Z,75.36
2023-05-11T14:29:06.331Z,72.57
2023-05-11T14:31:35.426Z,73.45
2023-05-11T14:34:05.262Z,71.71
2023-05-11T14:36:33.083Z,70.73
2023-05-11T14:39:00.830Z,69.73
2023-05-11T14:41:28.620Z,70.55
2023-05-11T14:43:56.439Z,64.27
2023-05-11T14:46:26.696Z,67.80
2023-05-11T14:48:55.005Z,66.80
2023-05-11T14:51:24.209Z,66.54
2023-05-11T14:53:52.178Z,62.31
2023-05-11T14:56:20.152Z,62.26
2023-05-11T14:58:47.915Z,61.10
2023-05-11T15:01:15.693Z,61.18
2023-05-11T15:03:43.662Z,60.24
2023-05-11T15:06:11.471Z,58.87
2023-05-11T15:08:40.673Z,56.69
2023-05-11T15:11:08.392Z,56.81
2023-05-11T15:13:36.198Z,56.20
2023-05-11T15:16:04.005Z,56.16
2023-05-11T15:18:31.816Z,57.39
2023-05-11T15:20:59.629Z,55.70
2023-05-11T15:23:27.427Z,52.97
2023-05-11T15:25:58.581Z,58.70
2023-05-11T15:28:26.665Z,50.51
2023-05-11T15:30:54.372Z,50.31
2023-05-11T15:33:22.106Z,51.81
2023-05-11T15:35:50.506Z,48.20
2023-05-11T15:38:19.560Z,49.89
2023-05-11T15:40:47.539Z,52.75
2023-05-11T15:43:16.805Z,52.80
2023-05-11T15:45:44.834Z,51.99
2023-05-11T15:48:13.428Z,51.21
2023-05-11T15:50:41.192Z,51.03
2023-05-11T15:53:08.899Z,52.85
2023-05-11T15:55:36.949Z,50.66
2023-05-11T15:58:07.918Z,54.74
2023-05-11T16:00:37.451Z,52.37
2023-05-11T16:03:07.070Z,51.74
2023-05-11T16:05:35.093Z,50.32
2023-05-11T16:08:02.853Z,53.08
2023-05-11T16:10:30.766Z,56.18
2023-05-11T16:12:58.991Z,57.00
2023-05-11T16:15:26.987Z,57.22
2023-05-11T16:17:56.480Z,60.22
2023-05-11T16:20:24.387Z,59.40
2023-05-11T16:22:52.218Z,57.38
2023-05-11T16:25:19.961Z,56.95
2023-05-11T16:27:47.740Z,63.08
2023-05-11T16:30:24.309Z,61.73
2023-05-11T16:32:53.611Z,61.63
2023-05-11T16:35:22.958Z,62.30
2023-05-11T16:37:50.742Z,64.84
2023-05-11T16:40:21.397Z,60.32
2023-05-11T16:42:49.538Z,64.52
2023-05-11T16:45:17.693Z,65.38
2023-05-11T16:47:46.145Z,62.15
2023-05-11T16:50:15.808Z,64.15
2023-05-11T16:52:45.141Z,64.01
2023-05-11T16:55:16.000Z,63.88
2023-05-11T16:57:44.669Z,60.51
2023-05-11T17:00:13.475Z,61.63
2023-05-11T17:02:41.744Z,65.15
2023-05-11T17:05:11.382Z,62.39
2023-05-11T17:07:39.223Z,60.38
2023-05-11T17:10:10.102Z,58.83
2023-05-11T17:12:37.824Z,63.85
2023-05-11T17:15:09.599Z,59.74
2023-05-11T17:17:37.912Z,60.27
2023-05-11T17:20:07.461Z,61.70
2023-05-11T17:22:36.011Z,61.17
2023-05-11T17:25:03.884Z,60.97
2023-05-11T17:27:33.312Z,62.57
2023-05-11T17:30:01.036Z,61.30
2023-05-11T17:32:29.543Z,61.76
2023-05-11T17:34:57.553Z,60.33
2023-05-11T17:37:31.750Z,61.11
2023-05-11T17:40:01.015Z,61.50
2023-05-11T17:42:29.321Z,58.70
2023-05-11T17:44:58.613Z,62.15
2023-05-11T17:47:26.729Z,57.23
2023-05-11T17:49:54.483Z,59.12
2023-05-11T17:52:25.129Z,57.21
2023-05-11T17:54:53.263Z,56.78
2023-05-11T17:57:23.100Z,57.05
2023-05-11T17:59:50.852Z,60.25
2023-05-11T18:02:20.065Z,58.55
2023-05-11T18:04:47.874Z,59.37
2023-05-11T18:07:15.786Z,57.79
2023-05-11T18:09:44.583Z,58.64
2023-05-11T18:12:12.617Z,57.45
2023-05-11T18:14:40.301Z,59.46
2023-05-11T18:17:08.052Z,57.25
2023-05-11T18:19:37.134Z,56.90
2023-05-11T18:22:04.970Z,55.44
2023-05-11T18:24:32.698Z,55.93
2023-05-11T18:27:00.389Z,53.93
2023-05-11T18:29:28.144Z,53.08
2023-05-11T18:31:56.080Z,54.87
2023-05-11T18:34:24.130Z,52.44
2023-05-11T18:36:53.248Z,52.36
2023-05-11T18:39:20.946Z,54.59
2023-05-11T18:41:48.690Z,54.19
2023-05-11T18:44:18.357Z,55.33
2023-05-11T18:46:46.232Z,53.02
2023-05-11T18:49:14.068Z,54.60
2023-05-11T18:51:41.773Z,55.72
2023-05-11T18:54:10.981Z,54.97
2023-05-11T18:56:38.717Z,54.66
2023-05-11T18:59:06.779Z,55.00
2023-05-11T19:01:46.504Z,54.64
2023-05-11T19:04:17.667Z,55.45
2023-05-11T19:06:45.402Z,56.70
2023-05-11T19:09:14.453Z,57.28
2023-05-11T19:11:42.944Z,56.12
2023-05-11T19:14:12.319Z,59.63
2023-05-11T19:16:40.060Z,58.04
2023-05-11T19:19:07.853Z,59.29
2023-05-11T19:21:39.909Z,58.25
2023-05-11T19:24:08.239Z,59.80
2023-05-11T19:26:38.221Z,61.00
2023-05-11T19:29:06.134Z,60.90
2023-05-11T19:31:33.978Z,61.12
2023-05-11T19:34:02.721Z,60.48
2023-05-11T19:36:30.553Z,61.40
2023-05-11T19:38:58.278Z,61.24
2023-05-11T19:41:26.068Z,61.58
2023-05-11T19:43:55.131Z,63.59
2023-05-11T19:46:23.324Z,62.74
2023-05-11T19:48:51.026Z,64.01
2023-05-11T19:51:19.006Z,65.57
2023-05-11T19:53:46.743Z,66.52
2023-05-11T19:56:14.591Z,68.17
2023-05-11T19:58:42.386Z,67.44
2023-05-11T20:01:11.560Z,68.62
2023-05-11T20:03:39.389Z,69.27
2023-05-11T20:06:07.269Z,70.17
2023-05-11T20:08:34.995Z,69.87
2023-05-11T20:11:02.676Z,69.87
2023-05-11T20:13:31.077Z,70.17
2023-05-11T20:15:59.501Z,70.62
2023-05-11T20:18:28.653Z,72.96
2023-05-11T20:20:56.418Z,73.72
2023-05-11T20:23:24.442Z,74.83
2023-05-11T20:25:52.118Z,74.33
2023-05-11T20:28:21.449Z,73.94
2023-05-11T20:30:49.153Z,75.50
2023-05-11T20:35:49.623Z,77.40
2023-05-11T20:38:18.090Z,80.47
2023-05-11T20:40:45.871Z,78.82
2023-05-11T20:43:14.852Z,79.00
2023-05-11T20:45:43.592Z,78.47
2023-05-11T20:48:11.520Z,80.17
2023-05-11T20:50:39.852Z,80.66
2023-05-11T20:53:09.052Z,80.98
2023-05-11T20:55:36.769Z,80.74
2023-05-11T20:58:05.221Z,82.88
2023-05-11T21:00:32.970Z,82.82
2023-05-11T21:03:00.827Z,81.28
2023-05-11T21:05:28.875Z,82.42
2023-05-11T21:07:57.160Z,83.05
2023-05-11T21:10:26.222Z,83.82
2023-05-11T21:12:53.957Z,84.84
2023-05-11T21:15:21.769Z,83.81
2023-05-11T21:17:49.484Z,83.10
2023-05-11T21:20:17.507Z,83.20
2023-05-11T21:22:45.426Z,83.86
2023-05-11T21:25:13.412Z,83.14
2023-05-11T21:27:42.716Z,84.02
2023-05-11T21:30:11.101Z,83.76
2023-05-11T21:32:38.847Z,84.38
2023-05-11T21:35:07.288Z,85.93
2023-05-11T21:37:35.719Z,85.83
2023-05-11T21:40:03.880Z,86.94
2023-05-11T21:42:34.927Z,85.08
2023-05-11T21:45:04.525Z,87.41
2023-05-11T21:47:32.291Z,88.95
2023-05-11T21:50:00.209Z,87.28
2023-05-11T21:52:28.021Z,89.43
2023-05-11T21:54:55.688Z,88.29
2023-05-11T21:57:23.449Z,87.83
2023-05-11T21:59:51.375Z,89.03
2023-05-11T22:02:20.504Z,88.63
2023-05-11T22:04:48.674Z,88.85
2023-05-11T22:07:16.399Z,87.18
2023-05-11T22:09:44.074Z,89.17
2023-05-11T22:12:11.833Z,87.27
2023-05-11T22:14:39.602Z,85.76
2023-05-11T22:17:07.628Z,86.00
2023-05-11T22:19:36.725Z,85.89
2023-05-11T22:22:04.589Z,85.50
2023-05-11T22:24:32.279Z,86.07
2023-05-11T22:27:01.177Z,86.49
2023-05-11T22:29:28.862Z,89.05
2023-05-11T22:31:56.624Z,89.16
2023-05-11T22:34:24.423Z,87.56
2023-05-11T22:36:53.712Z,87.20
2023-05-11T22:39:21.713Z,88.07
2023-05-11T22:41:49.457Z,89.40
2023-05-11T22:44:17.723Z,87.43
2023-05-11T22:46:45.480Z,90.03
2023-05-11T22:49:13.196Z,88.91
2023-05-11T22:51:40.862Z,88.16
2023-05-11T22:54:10.040Z,87.99
2023-05-11T22:56:39.069Z,87.66
2023-05-11T22:59:06.756Z,87.62
2023-05-11T23:01:34.771Z,89.89
2023-05-11T23:04:02.731Z,87.89
2023-05-11T23:06:30.771Z,88.99
2023-05-11T23:08:58.524Z,89.52
2023-05-11T23:11:27.616Z,91.23
2023-05-11T23:13:55.345Z,91.56
2023-05-11T23:16:23.088Z,88.54
2023-05-11T23:18:51.012Z,89.92
2023-05-11T23:21:18.877Z,90.88
2023-05-11T23:23:46.627Z,88.04
2023-05-11T23:26:14.499Z,87.28
2023-05-11T23:28:43.579Z,89.63
2023-05-11T23:31:11.515Z,91.02
2023-05-11T23:33:39.261Z,90.80
2023-05-11T23:36:07.921Z,92.20
2023-05-11T23:38:35.618Z,93.98
2023-05-11T23:41:03.340Z,91.99
2023-05-11T23:43:31.483Z,91.99
2023-05-11T23:46:02.367Z,90.94
2023-05-11T23:48:30.180Z,92.32
2023-05-11T23:50:57.969Z,92.64
2023-05-11T23:53:25.648Z,93.29
2023-05-11T23:55:53.429Z,94.73
2023-05-11T23:58:21.252Z,93.74
